Weather History for Wasilla, AK

Change the Weather History Date:

Tuesday, January 8, 2013

  Actual Average Record
Temperature  
Mean Temperature 22 °F -  
Max Temperature 28 °F 20 °F 46 °F (1985)
Min Temperature 15 °F 5 °F -29 °F (1975)
Degree Days  
Heating Degree Days 44    
Moisture  
Dew Point 12 °F    
Average Humidity 74    
Maximum Humidity 80    
Minimum Humidity 51    
Precipitation  
Precipitation 0.00 in - - ()
Sea Level Pressure  
Sea Level Pressure 29.68 in    
Wind  
Wind Speed 2 mph (South)    
Max Wind Speed 6 mph    
Max Gust Speed -    
Visibility 10 miles    
Events      
Averages and records for this station are not official NWS values.
T = Trace of Precipitation, MM = Missing Value Source: NWS Daily Summary

Daily Weather History Graph

Daily Weather History Graph

Search for Another Location

Airport:

Trip Planner

Search our weather history database for the weather conditions in past years. The results will help you decide how hot, cold, wet, or windy it might be!

Date:

Astronomy

Jan. 08, 2013 Rise Set
Actual Time 10:08 AM AKST 4:01 PM AKST
Civil Twilight 9:08 AM AKST 5:01 PM AKST
Nautical Twilight 8:10 AM AKST 6:00 PM AKST
Astronomical Twilight 7:16 AM AKST 6:54 PM AKST
Moon 6:48 AM AKST (1/8) 1:15 PM AKST (1/8)
Length of Visible Light 7h 52m
Length of Day
5h 53m
Waning Crescent, 12% of the Moon is Illuminated
Jan 8
Waning Crescent
Jan 11
New
Jan 18
First Quarter
Jan 26
Full
Feb 3
Last Quarter

Hourly Weather History & Observations

Time (AKST) Temp. Windchill Dew Point Humidity Pressure Visibility Wind Dir Wind Speed Gust Speed Precip Events Conditions
12:16 AM 28.4 °F 24.6 °F 12.2 °F 51% 29.37 in 10.0 mi NE 3.5 mph - N/A   Partly Cloudy
12:36 AM 26.6 °F - 12.2 °F 55% 29.38 in 10.0 mi Calm Calm - N/A   Clear
12:56 AM 24.8 °F - 12.2 °F 59% 29.39 in 10.0 mi Calm Calm - N/A   Clear
1:16 AM 21.2 °F 16.4 °F 12.2 °F 68% 29.40 in 10.0 mi WSW 3.5 mph - N/A   Clear
1:36 AM 19.4 °F - 12.2 °F 74% 29.40 in 10.0 mi Calm Calm - N/A   Clear
1:56 AM 21.2 °F 16.4 °F 12.2 °F 68% 29.41 in 10.0 mi WSW 3.5 mph - N/A   Clear
2:16 AM 21.2 °F - 12.2 °F 68% 29.42 in 10.0 mi Calm Calm - N/A   Clear
2:36 AM 21.2 °F - 12.2 °F 68% 29.43 in 10.0 mi Calm Calm - N/A   Clear
2:56 AM 21.2 °F - 12.2 °F 68% 29.43 in 10.0 mi Calm Calm - N/A   Clear
3:16 AM 21.2 °F 16.4 °F 14.0 °F 74% 29.44 in 10.0 mi WSW 3.5 mph - N/A   Clear
3:36 AM 21.2 °F - 14.0 °F 74% 29.45 in 10.0 mi Calm Calm - N/A   Clear
3:56 AM 21.2 °F - 14.0 °F 74% 29.46 in 10.0 mi Calm Calm - N/A   Clear
4:16 AM 21.2 °F 16.4 °F 14.0 °F 74% 29.46 in 10.0 mi WNW 3.5 mph - N/A   Clear
4:36 AM 21.2 °F 16.4 °F 14.0 °F 74% 29.47 in 10.0 mi WSW 3.5 mph - N/A   Clear
4:56 AM 21.2 °F 16.4 °F 14.0 °F 74% 29.48 in 10.0 mi West 3.5 mph - N/A   Partly Cloudy
5:16 AM 21.2 °F 16.4 °F 14.0 °F 74% 29.48 in 10.0 mi WSW 3.5 mph - N/A   Partly Cloudy
5:36 AM 19.4 °F 12.8 °F 12.2 °F 74% 29.50 in 10.0 mi SW 4.6 mph - N/A   Clear
5:56 AM 19.4 °F - 12.2 °F 74% 29.50 in 10.0 mi Calm Calm - N/A   Clear
6:16 AM 19.4 °F - 14.0 °F 80% 29.51 in 10.0 mi Calm Calm - N/A   Scattered Clouds
6:36 AM 19.4 °F 12.8 °F 12.2 °F 74% 29.52 in 10.0 mi West 4.6 mph - N/A   Partly Cloudy
6:56 AM 21.2 °F 16.4 °F 14.0 °F 74% 29.52 in 10.0 mi WSW 3.5 mph - N/A   Clear
7:16 AM 19.4 °F 14.3 °F 14.0 °F 80% 29.53 in 10.0 mi WSW 3.5 mph - N/A   Clear
7:36 AM 19.4 °F - 14.0 °F 80% 29.55 in 10.0 mi Calm Calm - N/A   Clear
7:56 AM 19.4 °F - 14.0 °F 80% 29.55 in 10.0 mi Calm Calm - N/A   Clear
8:16 AM 19.4 °F - 14.0 °F 80% 29.56 in 10.0 mi Calm Calm - N/A   Clear
8:36 AM 19.4 °F 14.3 °F 14.0 °F 80% 29.58 in 10.0 mi SW 3.5 mph - N/A   Partly Cloudy
8:56 AM 19.4 °F 14.3 °F 14.0 °F 80% 29.59 in 10.0 mi West 3.5 mph - N/A   Partly Cloudy
9:16 AM 19.4 °F 12.8 °F 14.0 °F 80% 29.60 in 10.0 mi WNW 4.6 mph - N/A   Clear
9:36 AM 19.4 °F - 14.0 °F 80% 29.61 in 10.0 mi Calm Calm - N/A   Clear
9:56 AM 19.4 °F - 14.0 °F 80% 29.62 in 10.0 mi Calm Calm - N/A   Clear
10:16 AM 19.4 °F 11.5 °F 12.2 °F 74% 29.63 in 10.0 mi WSW 5.8 mph - N/A   Clear
10:36 AM 19.4 °F 14.3 °F 12.2 °F 74% 29.65 in 10.0 mi West 3.5 mph - N/A   Clear
10:56 AM 19.4 °F - 12.2 °F 74% 29.66 in 10.0 mi Calm Calm - N/A   Clear
11:16 AM 19.4 °F - 12.2 °F 74% 29.67 in 10.0 mi Calm Calm - N/A   Clear
11:36 AM 19.4 °F - 12.2 °F 74% 29.68 in 10.0 mi Calm Calm - N/A   Clear
11:56 AM 19.4 °F - 14.0 °F 80% 29.69 in 10.0 mi Calm Calm - N/A   Clear
12:16 PM 19.4 °F - 14.0 °F 80% 29.70 in 10.0 mi Calm Calm - N/A   Clear
12:36 PM 19.4 °F - 14.0 °F 80% 29.71 in 10.0 mi Calm Calm - N/A   Clear
12:56 PM 21.2 °F 16.4 °F 12.2 °F 68% 29.72 in 10.0 mi WSW 3.5 mph - N/A   Clear
1:16 PM 19.4 °F 14.3 °F 12.2 °F 74% 29.73 in 10.0 mi West 3.5 mph - N/A   Clear
1:36 PM 19.4 °F - 12.2 °F 74% 29.74 in 10.0 mi Calm Calm - N/A   Clear
1:56 PM 19.4 °F - 12.2 °F 74% 29.75 in 10.0 mi Calm Calm - N/A   Clear
2:16 PM 19.4 °F - 10.4 °F 68% 29.76 in 10.0 mi Calm Calm - N/A   Clear
2:36 PM 19.4 °F - 10.4 °F 68% 29.77 in 10.0 mi Calm Calm - N/A   Clear
2:56 PM 19.4 °F - 10.4 °F 68% 29.78 in 10.0 mi Calm Calm - N/A   Clear
3:16 PM 19.4 °F - 12.2 °F 74% 29.79 in 10.0 mi Calm Calm - N/A   Clear
3:36 PM 17.6 °F - 10.4 °F 73% 29.80 in 10.0 mi Calm Calm - N/A   Clear
3:56 PM 17.6 °F - 10.4 °F 73% 29.80 in 10.0 mi Calm Calm - N/A   Clear
4:16 PM 15.8 °F - 10.4 °F 79% 29.81 in 10.0 mi Calm Calm - N/A   Clear
4:36 PM 17.6 °F - 12.2 °F 79% 29.82 in 10.0 mi Calm Calm - N/A   Clear
4:56 PM 15.8 °F 10.2 °F 10.4 °F 79% 29.83 in 10.0 mi East 3.5 mph - N/A   Clear
5:16 PM 17.6 °F 12.3 °F 10.4 °F 73% 29.84 in 10.0 mi East 3.5 mph - N/A   Mostly Cloudy
5:36 PM 15.8 °F 10.2 °F 10.4 °F 79% 29.85 in 10.0 mi ESE 3.5 mph - N/A   Mostly Cloudy
5:56 PM 17.6 °F 10.7 °F 12.2 °F 79% 29.86 in 10.0 mi East 4.6 mph - N/A   Scattered Clouds
6:16 PM 17.6 °F 10.7 °F 10.4 °F 73% 29.86 in 10.0 mi East 4.6 mph - N/A   Mostly Cloudy
6:36 PM 17.6 °F 10.7 °F 12.2 °F 79% 29.86 in 10.0 mi ENE 4.6 mph - N/A   Scattered Clouds
6:56 PM 17.6 °F 12.3 °F 12.2 °F 79% 29.88 in 10.0 mi East 3.5 mph - N/A   Partly Cloudy
7:16 PM 17.6 °F 12.3 °F 12.2 °F 79% 29.89 in 10.0 mi East 3.5 mph - N/A   Scattered Clouds
7:36 PM 15.8 °F 10.2 °F 8.6 °F 73% 29.90 in 10.0 mi East 3.5 mph - N/A   Partly Cloudy
7:56 PM 17.6 °F 10.7 °F 8.6 °F 68% 29.90 in 10.0 mi ENE 4.6 mph - N/A   Mostly Cloudy
8:16 PM 17.6 °F - 12.2 °F 79% 29.91 in 10.0 mi Calm Calm - N/A   Mostly Cloudy
8:36 PM 17.6 °F 12.3 °F 12.2 °F 79% 29.92 in 10.0 mi East 3.5 mph - N/A   Mostly Cloudy
9:16 PM 17.6 °F 12.3 °F 12.2 °F 79% 29.94 in 10.0 mi East 3.5 mph - N/A   Overcast
9:36 PM 17.6 °F 12.3 °F 12.2 °F 79% 29.94 in 10.0 mi ESE 3.5 mph - N/A   Overcast
9:56 PM 19.4 °F 14.3 °F 12.2 °F 74% 29.94 in 10.0 mi East 3.5 mph - N/A   Mostly Cloudy
10:16 PM 17.6 °F - 10.4 °F 73% 29.95 in 10.0 mi Calm Calm - N/A   Partly Cloudy
10:36 PM 17.6 °F 12.3 °F 10.4 °F 73% 29.96 in 10.0 mi East 3.5 mph - N/A   Clear
10:56 PM 17.6 °F - 10.4 °F 73% 29.97 in 10.0 mi Calm Calm - N/A   Clear
11:16 PM 17.6 °F - 10.4 °F 73% 29.97 in 10.0 mi Calm Calm - N/A   Clear
11:36 PM 17.6 °F 12.3 °F 12.2 °F 79% 29.97 in 10.0 mi East 3.5 mph - N/A   Clear
11:56 PM 19.4 °F - 12.2 °F 74% 29.99 in 10.0 mi Calm Calm - N/A   Clear